createdAt,value
2022-11-05T00:00:19.761Z,99.90
2022-11-05T00:03:05.834Z,99.90
2022-11-05T00:05:51.645Z,99.90
2022-11-05T00:08:37.530Z,99.90
2022-11-05T00:11:04.983Z,99.90
2022-11-05T00:13:50.928Z,99.90
2022-11-05T00:16:36.966Z,99.90
2022-11-05T00:19:07.491Z,99.90
2022-11-05T00:21:55.149Z,99.90
2022-11-05T00:24:41.698Z,99.90
2022-11-05T00:27:09.636Z,99.90
2022-11-05T00:29:37.583Z,99.90
2022-11-05T00:32:05.713Z,99.90
2022-11-05T00:34:33.319Z,99.90
2022-11-05T00:38:01.321Z,99.90
2022-11-05T00:40:34.887Z,99.90
2022-11-05T00:43:20.804Z,99.90
2022-11-05T00:45:48.338Z,99.90
2022-11-05T00:48:34.636Z,99.90
2022-11-05T00:51:02.185Z,99.90
2022-11-05T00:53:29.564Z,99.90
2022-11-05T00:55:56.897Z,99.90
2022-11-05T00:58:24.884Z,99.90
2022-11-05T01:00:54.590Z,99.90
2022-11-05T01:03:24.538Z,99.90
2022-11-05T01:05:55.528Z,99.90
2022-11-05T01:08:25.962Z,99.90
2022-11-05T01:10:56.208Z,99.90
2022-11-05T01:13:27.252Z,99.90
2022-11-05T01:15:55.815Z,99.90
2022-11-05T01:18:24.432Z,99.90
2022-11-05T01:20:51.803Z,99.90
2022-11-05T01:23:19.573Z,99.90
2022-11-05T01:25:47.119Z,99.90
2022-11-05T01:28:14.451Z,99.90
2022-11-05T01:30:41.811Z,99.90
2022-11-05T01:33:09.697Z,99.90
2022-11-05T01:35:39.136Z,99.90
2022-11-05T01:38:06.430Z,99.90
2022-11-05T01:40:33.819Z,99.90
2022-11-05T01:43:01.143Z,99.90
2022-11-05T01:45:28.992Z,99.90
2022-11-05T01:47:59.392Z,99.90
2022-11-05T01:51:01.560Z,99.90
2022-11-05T01:53:31.701Z,99.90
2022-11-05T01:56:22.647Z,99.90
2022-11-05T01:58:53.462Z,99.90
2022-11-05T02:01:21.008Z,99.90
2022-11-05T02:03:50.145Z,99.90
2022-11-05T02:06:17.879Z,99.90
2022-11-05T02:08:58.505Z,99.90
2022-11-05T02:11:26.050Z,99.90
2022-11-05T02:13:53.441Z,99.90
2022-11-05T02:16:20.754Z,99.90
2022-11-05T02:19:29.066Z,99.90
2022-11-05T02:22:14.450Z,99.90
2022-11-05T02:24:41.763Z,99.90
2022-11-05T02:27:43.015Z,99.90
2022-11-05T02:30:26.138Z,99.90
2022-11-05T02:33:00.017Z,99.90
2022-11-05T02:35:44.869Z,99.90
2022-11-05T02:38:32.437Z,99.90
2022-11-05T02:41:13.314Z,99.90
2022-11-05T02:44:03.820Z,99.90
2022-11-05T02:46:38.402Z,99.90
2022-11-05T02:49:36.564Z,99.90
2022-11-05T02:52:14.058Z,99.90
2022-11-05T02:54:47.749Z,99.90
2022-11-05T02:57:15.154Z,99.90
2022-11-05T02:59:42.412Z,99.90
2022-11-05T03:02:09.893Z,99.90
2022-11-05T03:04:37.423Z,99.90
2022-11-05T03:07:35.389Z,99.90
2022-11-05T03:10:23.537Z,99.90
2022-11-05T03:13:19.359Z,99.90
2022-11-05T03:16:06.131Z,99.90
2022-11-05T03:18:43.227Z,99.90
2022-11-05T03:21:22.078Z,99.90
2022-11-05T03:23:49.279Z,99.90
2022-11-05T03:26:26.543Z,99.90
2022-11-05T03:29:01.735Z,99.90
2022-11-05T03:31:31.367Z,99.90
2022-11-05T03:34:01.020Z,99.90
2022-11-05T03:36:35.382Z,99.90
2022-11-05T03:39:06.475Z,99.90
2022-11-05T03:41:35.483Z,99.90
2022-11-05T03:44:06.874Z,99.90
2022-11-05T03:46:41.139Z,99.60
2022-11-05T03:49:12.933Z,99.40
2022-11-05T03:51:49.587Z,98.80
2022-11-05T03:54:17.038Z,99.00
2022-11-05T03:57:02.636Z,99.40
2022-11-05T03:59:32.162Z,99.00
2022-11-05T04:01:59.627Z,98.70
2022-11-05T04:04:27.131Z,99.00
2022-11-05T04:07:13.230Z,99.10
2022-11-05T04:09:58.796Z,99.00
2022-11-05T04:12:44.769Z,98.50
2022-11-05T04:15:12.050Z,98.50
2022-11-05T04:17:39.309Z,98.00
2022-11-05T04:20:25.303Z,98.60
2022-11-05T04:23:25.328Z,97.50
2022-11-05T04:25:52.698Z,97.90
2022-11-05T04:28:19.922Z,98.20
2022-11-05T04:30:47.341Z,97.90
2022-11-05T04:33:16.782Z,97.90
2022-11-05T04:35:48.780Z,98.10
2022-11-05T04:38:20.228Z,98.40
2022-11-05T04:40:48.415Z,98.60
2022-11-05T04:43:19.046Z,98.30
2022-11-05T04:45:46.707Z,99.40
2022-11-05T04:48:14.083Z,99.30
2022-11-05T04:50:41.441Z,99.40
2022-11-05T04:53:09.006Z,99.30
2022-11-05T04:55:36.548Z,99.90
2022-11-05T04:58:03.883Z,99.90
2022-11-05T05:00:31.234Z,99.90
2022-11-05T05:02:58.538Z,99.90
2022-11-05T05:05:25.943Z,99.90
2022-11-05T05:07:53.410Z,99.90
2022-11-05T05:10:20.767Z,99.90
2022-11-05T05:12:48.519Z,99.90
2022-11-05T05:15:15.906Z,99.90
2022-11-05T05:17:43.333Z,99.90
2022-11-05T05:20:28.986Z,99.90
2022-11-05T05:22:56.315Z,99.90
2022-11-05T05:25:23.701Z,99.90
2022-11-05T05:27:51.271Z,99.90
2022-11-05T05:30:18.661Z,99.90
2022-11-05T05:32:46.018Z,99.90
2022-11-05T05:35:13.354Z,99.90
2022-11-05T05:37:40.805Z,99.90
2022-11-05T05:40:08.968Z,99.90
2022-11-05T05:42:41.773Z,99.90
2022-11-05T05:45:11.136Z,99.90
2022-11-05T05:47:38.866Z,99.90
2022-11-05T05:50:06.596Z,99.90
2022-11-05T05:52:34.150Z,99.90
2022-11-05T05:55:01.448Z,99.90
2022-11-05T05:57:28.772Z,99.90
2022-11-05T05:59:56.181Z,99.90
2022-11-05T06:02:23.813Z,99.90
2022-11-05T06:04:51.208Z,99.90
2022-11-05T06:07:18.541Z,99.90
2022-11-05T06:09:45.971Z,99.90
2022-11-05T06:12:13.347Z,99.90
2022-11-05T06:14:40.755Z,99.90
2022-11-05T06:17:08.277Z,99.90
2022-11-05T06:19:35.674Z,99.90
2022-11-05T06:22:02.932Z,99.90
2022-11-05T06:24:30.582Z,99.90
2022-11-05T06:26:58.265Z,99.90
2022-11-05T06:29:25.649Z,99.90
2022-11-05T06:31:53.058Z,99.90
2022-11-05T06:34:20.540Z,99.90
2022-11-05T06:36:47.924Z,99.90
2022-11-05T06:39:15.231Z,99.90
2022-11-05T06:42:11.809Z,99.90
2022-11-05T06:44:31.240Z,99.90
2022-11-05T06:46:58.725Z,99.90
2022-11-05T06:49:26.051Z,99.90
2022-11-05T06:51:53.512Z,99.90
2022-11-05T06:54:21.381Z,99.90
2022-11-05T06:56:48.837Z,99.90
2022-11-05T06:59:16.285Z,99.90
2022-11-05T07:01:43.773Z,99.90
2022-11-05T07:04:12.689Z,99.90
2022-11-05T07:06:40.040Z,99.90
2022-11-05T07:09:07.403Z,99.90
2022-11-05T07:11:34.715Z,99.90
2022-11-05T07:14:02.130Z,99.90
2022-11-05T07:16:29.792Z,99.90
2022-11-05T07:18:57.430Z,99.90
2022-11-05T07:21:24.939Z,99.90
2022-11-05T07:23:52.334Z,99.90
2022-11-05T07:26:19.657Z,99.90
2022-11-05T07:28:46.929Z,99.90
2022-11-05T07:31:14.334Z,99.90
2022-11-05T07:33:41.648Z,99.90
2022-11-05T07:36:09.486Z,99.90
2022-11-05T07:38:36.780Z,99.90
2022-11-05T07:41:04.164Z,99.90
2022-11-05T07:43:31.508Z,99.90
2022-11-05T07:45:59.249Z,99.90
2022-11-05T07:48:26.538Z,99.90
2022-11-05T07:50:53.820Z,99.90
2022-11-05T07:53:21.253Z,99.90
2022-11-05T07:55:48.655Z,99.90
2022-11-05T07:58:16.005Z,99.90
2022-11-05T08:00:43.573Z,99.90
2022-11-05T08:03:14.538Z,99.80
2022-11-05T08:05:47.152Z,99.90
2022-11-05T08:08:16.759Z,98.70
2022-11-05T08:10:44.072Z,97.90
2022-11-05T08:13:12.279Z,99.90
2022-11-05T08:15:40.814Z,99.90
2022-11-05T08:18:12.071Z,99.90
2022-11-05T08:20:41.417Z,99.90
2022-11-05T08:23:09.553Z,99.90
2022-11-05T08:25:37.182Z,99.90
2022-11-05T08:28:07.773Z,99.90
2022-11-05T08:30:35.811Z,99.90
2022-11-05T08:33:06.203Z,99.90
2022-11-05T08:35:35.226Z,99.90
2022-11-05T08:38:05.131Z,99.90
2022-11-05T08:40:34.677Z,99.90
2022-11-05T08:43:03.831Z,99.90
2022-11-05T08:45:31.524Z,99.60
2022-11-05T08:48:13.129Z,99.30
2022-11-05T08:50:40.979Z,98.00
2022-11-05T08:53:09.904Z,96.00
2022-11-05T08:55:38.552Z,94.50
2022-11-05T08:58:16.062Z,94.10
2022-11-05T09:00:46.843Z,93.90
2022-11-05T09:03:15.110Z,94.00
2022-11-05T09:05:43.273Z,94.30
2022-11-05T09:08:19.066Z,94.50
2022-11-05T09:10:47.491Z,93.50
2022-11-05T09:13:19.445Z,93.60
2022-11-05T09:15:49.119Z,92.10
2022-11-05T09:18:18.034Z,92.10
2022-11-05T09:20:45.768Z,92.50
2022-11-05T09:23:16.382Z,93.50
2022-11-05T09:25:44.624Z,93.80
2022-11-05T09:28:20.550Z,94.20
2022-11-05T09:30:50.028Z,93.30
2022-11-05T09:33:19.510Z,93.70
2022-11-05T09:35:46.958Z,92.50
2022-11-05T09:38:14.382Z,93.00
2022-11-05T09:41:09.221Z,93.10
2022-11-05T09:43:48.616Z,91.90
2022-11-05T09:46:26.295Z,91.70
2022-11-05T09:49:12.338Z,90.40
2022-11-05T09:51:40.729Z,89.50
2022-11-05T09:54:10.720Z,85.40
2022-11-05T09:56:41.272Z,79.50
2022-11-05T09:59:22.662Z,73.70
2022-11-05T10:01:52.357Z,67.40
2022-11-05T10:04:23.709Z,61.70
2022-11-05T10:07:02.897Z,56.90
2022-11-05T10:09:36.215Z,55.50
2022-11-05T10:12:14.338Z,55.70
2022-11-05T10:14:48.621Z,54.90
2022-11-05T10:17:26.234Z,52.60
2022-11-05T10:20:03.294Z,51.40
2022-11-05T10:22:30.625Z,50.10
2022-11-05T10:24:57.939Z,49.60
2022-11-05T10:27:37.583Z,48.90
2022-11-05T10:30:05.495Z,46.80
2022-11-05T10:32:39.382Z,46.40
2022-11-05T10:35:11.503Z,46.90
2022-11-05T10:37:40.961Z,46.30
2022-11-05T10:40:33.839Z,45.10
2022-11-05T10:43:06.893Z,45.30
2022-11-05T10:45:52.635Z,46.20
2022-11-05T10:48:28.355Z,46.10
2022-11-05T10:50:56.238Z,44.70
2022-11-05T10:53:34.927Z,44.20
2022-11-05T10:56:04.550Z,44.30
2022-11-05T10:58:35.275Z,42.40
2022-11-05T11:01:07.437Z,41.30
2022-11-05T11:03:52.731Z,41.80
2022-11-05T11:06:37.963Z,42.20
2022-11-05T11:09:26.381Z,40.50
2022-11-05T11:12:05.504Z,40.80
2022-11-05T11:14:35.012Z,39.50
2022-11-05T11:17:27.968Z,38.30
2022-11-05T11:20:22.321Z,38.00
2022-11-05T11:22:59.022Z,37.90
2022-11-05T11:25:29.955Z,37.00
2022-11-05T11:28:03.720Z,36.80
2022-11-05T11:30:31.756Z,37.10
2022-11-05T11:33:07.782Z,36.90
2022-11-05T11:35:37.941Z,36.00
2022-11-05T11:38:06.945Z,34.40
2022-11-05T11:40:38.686Z,34.80
2022-11-05T11:43:17.503Z,33.50
2022-11-05T11:45:54.215Z,32.50
2022-11-05T11:48:29.606Z,32.80
2022-11-05T11:50:58.698Z,33.30
2022-11-05T11:53:34.486Z,32.50
2022-11-05T11:56:14.743Z,32.40
2022-11-05T11:58:46.956Z,33.00
2022-11-05T12:01:32.563Z,33.10
2022-11-05T12:04:30.422Z,32.30
2022-11-05T12:07:54.571Z,32.70
2022-11-05T12:10:34.351Z,32.40
2022-11-05T12:13:14.195Z,33.20
2022-11-05T12:16:04.735Z,34.30
2022-11-05T12:18:45.434Z,34.90
2022-11-05T12:21:41.098Z,35.30
2022-11-05T12:24:34.539Z,33.90
2022-11-05T12:27:07.645Z,35.30
2022-11-05T12:30:04.036Z,35.60
2022-11-05T12:33:05.578Z,35.10
2022-11-05T12:35:44.115Z,33.90
2022-11-05T12:38:53.808Z,34.80
2022-11-05T12:41:33.860Z,35.60
2022-11-05T12:44:47.628Z,35.40
2022-11-05T12:47:36.410Z,34.30
2022-11-05T12:50:12.663Z,35.20
2022-11-05T12:52:57.447Z,35.50
2022-11-05T12:55:27.299Z,34.70
2022-11-05T12:58:01.143Z,33.60
2022-11-05T13:00:30.451Z,34.20
2022-11-05T13:03:00.768Z,32.80
2022-11-05T13:05:36.552Z,32.50
2022-11-05T13:08:07.532Z,31.80
2022-11-05T13:10:51.787Z,32.00
2022-11-05T13:13:31.241Z,33.50
2022-11-05T13:16:21.578Z,34.20
2022-11-05T13:19:18.016Z,36.70
2022-11-05T13:21:53.682Z,38.60
2022-11-05T13:24:25.469Z,39.10
2022-11-05T13:27:24.801Z,40.10
2022-11-05T13:29:56.985Z,43.50
2022-11-05T13:32:43.738Z,45.00
2022-11-05T13:35:37.766Z,43.10
2022-11-05T13:38:27.597Z,46.00
2022-11-05T13:40:57.590Z,46.70
2022-11-05T13:43:27.705Z,46.00
2022-11-05T13:46:05.829Z,48.50
2022-11-05T13:48:43.607Z,49.80
2022-11-05T13:51:34.767Z,50.10
2022-11-05T13:54:17.031Z,49.80
2022-11-05T13:56:53.518Z,49.90
2022-11-05T13:59:48.348Z,49.50
2022-11-05T14:02:21.556Z,50.50
2022-11-05T14:04:50.486Z,50.70
2022-11-05T14:07:17.640Z,50.90
2022-11-05T14:09:45.812Z,50.80
2022-11-05T14:12:46.606Z,51.50
2022-11-05T14:15:24.571Z,52.60
2022-11-05T14:18:04.318Z,53.30
2022-11-05T14:20:31.846Z,54.10
2022-11-05T14:23:17.675Z,54.70
2022-11-05T14:25:45.153Z,55.40
2022-11-05T14:28:38.943Z,55.60
2022-11-05T14:31:47.223Z,55.70
2022-11-05T14:34:15.148Z,56.60
2022-11-05T14:36:44.846Z,57.50
2022-11-05T14:39:31.020Z,56.60
2022-11-05T14:42:03.620Z,57.20
2022-11-05T14:44:34.189Z,56.50
2022-11-05T14:47:07.788Z,56.40
2022-11-05T14:49:53.133Z,56.20
2022-11-05T14:52:21.053Z,56.60
2022-11-05T14:54:58.290Z,57.30
2022-11-05T14:57:41.792Z,57.10
2022-11-05T15:00:44.614Z,58.00
2022-11-05T15:03:56.231Z,58.60
2022-11-05T15:06:25.367Z,60.00
2022-11-05T15:09:16.996Z,60.20
2022-11-05T15:12:02.397Z,61.00
2022-11-05T15:15:01.993Z,61.30
2022-11-05T15:17:33.220Z,62.70
2022-11-05T15:20:06.744Z,63.70
2022-11-05T15:22:40.353Z,64.80
2022-11-05T15:25:16.261Z,65.00
2022-11-05T15:28:06.680Z,65.90
2022-11-05T15:30:34.169Z,66.80
2022-11-05T15:33:17.455Z,67.90
2022-11-05T15:35:44.862Z,68.40
2022-11-05T15:38:29.387Z,69.20
2022-11-05T15:40:59.066Z,69.20
2022-11-05T15:43:26.423Z,69.80
2022-11-05T15:46:14.493Z,70.10
2022-11-05T15:48:46.248Z,70.60
2022-11-05T15:51:13.662Z,71.30
2022-11-05T15:54:02.187Z,71.90
2022-11-05T15:56:33.315Z,72.40
2022-11-05T15:59:17.072Z,73.30
2022-11-05T16:02:18.622Z,73.50
2022-11-05T16:04:49.152Z,74.60
2022-11-05T16:07:17.286Z,75.40
2022-11-05T16:09:56.839Z,76.40
2022-11-05T16:12:35.603Z,77.20
2022-11-05T16:15:08.877Z,78.20
2022-11-05T16:17:50.582Z,79.30
2022-11-05T16:20:22.866Z,80.00
2022-11-05T16:22:53.386Z,81.00
2022-11-05T16:25:41.485Z,81.50
2022-11-05T16:28:29.040Z,81.80
2022-11-05T16:30:58.668Z,82.00
2022-11-05T16:33:32.636Z,82.20
2022-11-05T16:36:00.049Z,83.80
2022-11-05T16:38:27.973Z,83.50
2022-11-05T16:40:55.242Z,84.70
2022-11-05T16:43:26.321Z,84.10
2022-11-05T16:45:55.636Z,84.50
2022-11-05T16:48:23.219Z,85.40
2022-11-05T16:50:50.639Z,86.20
2022-11-05T16:53:18.127Z,87.10
2022-11-05T16:55:46.535Z,87.70
2022-11-05T16:58:21.880Z,88.00
2022-11-05T17:00:50.955Z,89.10
2022-11-05T17:03:18.647Z,89.60
2022-11-05T17:05:46.451Z,90.00
2022-11-05T17:08:14.198Z,90.30
2022-11-05T17:10:42.010Z,90.60
2022-11-05T17:13:17.947Z,90.80
2022-11-05T17:15:48.259Z,91.00
2022-11-05T17:18:18.750Z,91.20
2022-11-05T17:20:51.790Z,91.40
2022-11-05T17:23:21.650Z,91.60
2022-11-05T17:25:54.684Z,91.50
2022-11-05T17:28:22.649Z,91.80
2022-11-05T17:30:52.946Z,91.90
2022-11-05T17:33:22.889Z,91.90
2022-11-05T17:35:51.497Z,92.00
2022-11-05T17:38:19.771Z,92.00
2022-11-05T17:40:47.759Z,92.10
2022-11-05T17:43:16.129Z,92.60
2022-11-05T17:45:47.281Z,92.60
2022-11-05T17:48:15.526Z,92.60
2022-11-05T17:50:48.067Z,92.90
2022-11-05T17:53:17.164Z,93.00
2022-11-05T17:55:45.728Z,93.30
2022-11-05T17:58:13.510Z,93.40
2022-11-05T18:00:42.491Z,93.60
2022-11-05T18:03:11.619Z,93.80
2022-11-05T18:05:40.316Z,93.60
2022-11-05T18:08:08.743Z,93.80
2022-11-05T18:10:40.647Z,94.00
2022-11-05T18:13:08.226Z,94.30
2022-11-05T18:15:38.016Z,94.60
2022-11-05T18:18:05.450Z,94.50
2022-11-05T18:20:33.095Z,94.60
2022-11-05T18:23:00.445Z,94.80
2022-11-05T18:25:27.784Z,95.20
2022-11-05T18:27:55.153Z,95.30
2022-11-05T18:30:22.481Z,95.40
2022-11-05T18:32:51.084Z,95.60
2022-11-05T18:35:18.472Z,95.60
2022-11-05T18:37:46.145Z,95.70
2022-11-05T18:40:16.815Z,95.60
2022-11-05T18:42:50.989Z,95.50
2022-11-05T18:45:18.496Z,95.70
2022-11-05T18:47:48.488Z,95.80
2022-11-05T18:50:15.887Z,95.80
2022-11-05T18:52:43.982Z,96.10
2022-11-05T18:55:11.343Z,96.40
2022-11-05T18:57:41.651Z,96.50
2022-11-05T19:00:09.769Z,96.40
2022-11-05T19:02:37.293Z,96.60
2022-11-05T19:05:28.022Z,96.70
2022-11-05T19:07:52.449Z,96.70
2022-11-05T19:10:19.790Z,97.00
2022-11-05T19:12:47.212Z,97.10
2022-11-05T19:15:14.533Z,97.20
2022-11-05T19:17:41.890Z,97.20
2022-11-05T19:20:09.661Z,97.10
2022-11-05T19:22:37.174Z,97.20
2022-11-05T19:25:05.573Z,97.20
2022-11-05T19:27:34.589Z,97.20
2022-11-05T19:30:02.463Z,97.30
2022-11-05T19:32:29.807Z,97.60
2022-11-05T19:34:57.087Z,97.70
2022-11-05T19:37:24.388Z,97.80
2022-11-05T19:39:52.062Z,98.00
2022-11-05T19:42:19.321Z,98.10
2022-11-05T19:44:46.624Z,98.20
2022-11-05T19:47:13.972Z,98.30
2022-11-05T19:49:41.352Z,98.50
2022-11-05T19:52:08.682Z,98.50
2022-11-05T19:54:36.109Z,98.50
2022-11-05T19:57:03.573Z,98.10
2022-11-05T19:59:30.949Z,98.10
2022-11-05T20:01:58.508Z,98.10
2022-11-05T20:04:26.001Z,98.20
2022-11-05T20:06:53.430Z,98.20
2022-11-05T20:09:22.437Z,98.30
2022-11-05T20:11:53.983Z,98.50
2022-11-05T20:14:21.334Z,98.60
2022-11-05T20:16:49.616Z,98.80
2022-11-05T20:19:19.200Z,99.10
2022-11-05T20:21:47.021Z,99.10
2022-11-05T20:24:22.387Z,99.00
2022-11-05T20:26:55.457Z,99.00
2022-11-05T20:29:24.041Z,98.90
2022-11-05T20:31:52.569Z,98.80
2022-11-05T20:34:20.106Z,98.50
2022-11-05T20:36:47.427Z,98.50
2022-11-05T20:39:15.087Z,98.60
2022-11-05T20:41:42.516Z,98.50
2022-11-05T20:44:10.155Z,98.20
2022-11-05T20:46:37.528Z,98.30
2022-11-05T20:49:04.887Z,98.30
2022-11-05T20:51:32.175Z,98.30
2022-11-05T20:54:01.128Z,98.50
2022-11-05T20:56:34.717Z,98.30
2022-11-05T20:59:02.865Z,98.40
2022-11-05T21:01:32.463Z,98.30
2022-11-05T21:04:00.068Z,98.10
2022-11-05T21:06:27.797Z,98.10
2022-11-05T21:08:58.933Z,98.00
2022-11-05T21:11:26.663Z,98.10
2022-11-05T21:13:54.773Z,98.20
2022-11-05T21:16:22.331Z,98.20
2022-11-05T21:18:49.715Z,98.20
2022-11-05T21:21:19.314Z,98.30
2022-11-05T21:23:47.188Z,98.20
2022-11-05T21:26:16.833Z,98.30
2022-11-05T21:28:44.234Z,98.30
2022-11-05T21:31:11.695Z,98.10
2022-11-05T21:33:39.223Z,98.00
2022-11-05T21:36:12.623Z,98.00
2022-11-05T21:38:40.263Z,97.80
2022-11-05T21:41:08.768Z,97.80
2022-11-05T21:43:37.811Z,97.50
2022-11-05T21:46:05.518Z,97.50
2022-11-05T21:48:33.981Z,97.50
2022-11-05T21:51:19.884Z,97.50
2022-11-05T21:54:05.735Z,97.60
2022-11-05T21:56:52.426Z,97.50
2022-11-05T21:59:40.977Z,97.70
2022-11-05T22:02:11.323Z,97.60
2022-11-05T22:04:41.572Z,97.40
2022-11-05T22:07:11.532Z,97.60
2022-11-05T22:09:42.451Z,97.60
2022-11-05T22:12:10.547Z,97.60
2022-11-05T22:14:38.003Z,97.60
2022-11-05T22:17:05.767Z,97.40
2022-11-05T22:19:33.754Z,97.10
2022-11-05T22:22:01.319Z,97.10
2022-11-05T22:24:30.532Z,96.80
2022-11-05T22:26:59.802Z,96.70
2022-11-05T22:29:28.064Z,96.40
2022-11-05T22:31:55.755Z,96.30
2022-11-05T22:34:24.121Z,96.20
2022-11-05T22:36:52.223Z,96.10
2022-11-05T22:39:20.088Z,96.00
2022-11-05T22:41:47.574Z,96.00
2022-11-05T22:44:16.672Z,95.70
2022-11-05T22:46:44.211Z,95.60
2022-11-05T22:49:12.096Z,95.40
2022-11-05T22:51:40.029Z,95.00
2022-11-05T22:54:08.448Z,94.60
2022-11-05T22:56:40.396Z,94.80
2022-11-05T22:59:10.134Z,94.80
2022-11-05T23:01:37.736Z,94.80
2022-11-05T23:04:05.196Z,94.40
2022-11-05T23:06:51.864Z,94.30
2022-11-05T23:09:42.327Z,93.90
2022-11-05T23:12:24.074Z,93.70
2022-11-05T23:14:52.401Z,93.90
2022-11-05T23:17:38.535Z,94.20
2022-11-05T23:20:26.903Z,94.20
2022-11-05T23:23:12.735Z,94.40
2022-11-05T23:25:40.175Z,94.40
2022-11-05T23:28:10.244Z,94.20
2022-11-05T23:31:02.030Z,94.10
2022-11-05T23:33:33.610Z,94.70
2022-11-05T23:36:19.707Z,94.60
2022-11-05T23:38:47.104Z,94.60
2022-11-05T23:41:32.834Z,95.00
2022-11-05T23:44:18.952Z,95.40
2022-11-05T23:47:04.926Z,95.90
2022-11-05T23:49:32.430Z,96.40
2022-11-05T23:51:59.766Z,96.40
2022-11-05T23:54:27.326Z,96.30
2022-11-05T23:56:54.837Z,96.50
2022-11-05T23:59:22.178Z,96.70
